sensor_id;sensor_type;location;lat;lon;timestamp;pressure;altitude;pressure_sealevel;temperature;humidity
37892;BME280;45797;47.466;9.486;2023-06-04T00:03:31;95647.22;;;18.98;50.41
37892;BME280;45797;47.466;9.486;2023-06-04T00:08:41;95642.56;;;18.92;50.23
37892;BME280;45797;47.466;9.486;2023-06-04T00:13:41;95652.69;;;18.89;50.62
37892;BME280;45797;47.466;9.486;2023-06-04T00:18:55;95645.22;;;18.84;50.20
37892;BME280;45797;47.466;9.486;2023-06-04T00:23:55;95641.41;;;18.78;50.20
37892;BME280;45797;47.466;9.486;2023-06-04T00:28:57;95640.75;;;18.76;50.62
37892;BME280;45797;47.466;9.486;2023-06-04T00:33:58;95643.06;;;18.71;51.10
37892;BME280;45797;47.466;9.486;2023-06-04T00:38:58;95646.88;;;18.69;51.27
37892;BME280;45797;47.466;9.486;2023-06-04T00:44:04;95646.34;;;18.65;51.31
37892;BME280;45797;47.466;9.486;2023-06-04T00:49:21;95644.50;;;18.58;51.60
37892;BME280;45797;47.466;9.486;2023-06-04T00:54:25;95643.66;;;18.57;51.39
37892;BME280;45797;47.466;9.486;2023-06-04T00:59:27;95658.25;;;18.53;51.76
37892;BME280;45797;47.466;9.486;2023-06-04T01:04:53;95661.88;;;18.44;51.57
37892;BME280;45797;47.466;9.486;2023-06-04T01:09:57;95650.59;;;18.42;52.17
37892;BME280;45797;47.466;9.486;2023-06-04T01:14:58;95663.66;;;18.35;52.01
37892;BME280;45797;47.466;9.486;2023-06-04T01:20:28;95656.50;;;18.27;52.10
37892;BME280;45797;47.466;9.486;2023-06-04T01:25:38;95651.53;;;18.24;52.33
37892;BME280;45797;47.466;9.486;2023-06-04T01:30:42;95665.44;;;18.18;52.29
37892;BME280;45797;47.466;9.486;2023-06-04T01:35:46;95660.78;;;18.12;52.77
37892;BME280;45797;47.466;9.486;2023-06-04T01:40:47;95653.31;;;18.08;53.08
37892;BME280;45797;47.466;9.486;2023-06-04T01:45:47;95652.81;;;18.04;52.96
37892;BME280;45797;47.466;9.486;2023-06-04T01:50:54;95667.06;;;18.03;53.24
37892;BME280;45797;47.466;9.486;2023-06-04T01:55:55;95671.69;;;18.01;53.90
37892;BME280;45797;47.466;9.486;2023-06-04T02:00:57;95665.53;;;17.92;53.64
37892;BME280;45797;47.466;9.486;2023-06-04T02:06:00;95669.94;;;17.84;53.74
37892;BME280;45797;47.466;9.486;2023-06-04T02:11:09;95674.88;;;17.79;54.09
37892;BME280;45797;47.466;9.486;2023-06-04T02:16:09;95677.03;;;17.75;54.35
37892;BME280;45797;47.466;9.486;2023-06-04T02:21:17;95681.84;;;17.80;54.25
37892;BME280;45797;47.466;9.486;2023-06-04T02:26:19;95691.44;;;17.81;54.31
37892;BME280;45797;47.466;9.486;2023-06-04T02:31:20;95683.50;;;17.81;54.64
37892;BME280;45797;47.466;9.486;2023-06-04T02:36:21;95699.38;;;17.81;54.68
37892;BME280;45797;47.466;9.486;2023-06-04T02:41:23;95693.13;;;17.82;55.00
37892;BME280;45797;47.466;9.486;2023-06-04T02:46:24;95699.09;;;17.84;55.29
37892;BME280;45797;47.466;9.486;2023-06-04T02:51:27;95693.16;;;17.90;55.06
37892;BME280;45797;47.466;9.486;2023-06-04T02:56:29;95689.22;;;17.94;55.18
37892;BME280;45797;47.466;9.486;2023-06-04T03:01:40;95689.22;;;17.94;55.07
37892;BME280;45797;47.466;9.486;2023-06-04T03:06:42;95703.97;;;17.96;55.62
37892;BME280;45797;47.466;9.486;2023-06-04T03:11:56;95707.09;;;17.92;55.53
37892;BME280;45797;47.466;9.486;2023-06-04T03:17:02;95704.78;;;17.97;55.53
37892;BME280;45797;47.466;9.486;2023-06-04T03:22:14;95715.06;;;18.00;55.48
37892;BME280;45797;47.466;9.486;2023-06-04T03:27:15;95715.91;;;18.01;55.83
37892;BME280;45797;47.466;9.486;2023-06-04T03:32:18;95723.72;;;18.02;55.71
37892;BME280;45797;47.466;9.486;2023-06-04T03:37:27;95725.53;;;18.02;55.87
37892;BME280;45797;47.466;9.486;2023-06-04T03:42:28;95741.91;;;17.97;56.36
37892;BME280;45797;47.466;9.486;2023-06-04T03:47:38;95739.91;;;17.99;56.00
37892;BME280;45797;47.466;9.486;2023-06-04T03:52:39;95750.88;;;18.04;56.05
37892;BME280;45797;47.466;9.486;2023-06-04T03:57:40;95752.72;;;18.04;56.73
37892;BME280;45797;47.466;9.486;2023-06-04T04:02:46;95750.09;;;18.12;55.83
37892;BME280;45797;47.466;9.486;2023-06-04T04:08:05;95747.97;;;18.15;55.84
37892;BME280;45797;47.466;9.486;2023-06-04T04:13:07;95755.44;;;18.20;55.69
37892;BME280;45797;47.466;9.486;2023-06-04T04:18:11;95745.19;;;18.25;56.22
37892;BME280;45797;47.466;9.486;2023-06-04T04:23:12;95749.03;;;18.31;56.06
37892;BME280;45797;47.466;9.486;2023-06-04T04:28:16;95755.50;;;18.36;55.81
37892;BME280;45797;47.466;9.486;2023-06-04T04:33:17;95763.28;;;18.38;55.89
37892;BME280;45797;47.466;9.486;2023-06-04T04:38:20;95775.94;;;18.44;55.79
37892;BME280;45797;47.466;9.486;2023-06-04T04:43:32;95771.81;;;18.49;56.00
37892;BME280;45797;47.466;9.486;2023-06-04T04:48:40;95784.25;;;18.49;55.47
37892;BME280;45797;47.466;9.486;2023-06-04T04:53:46;95788.09;;;18.54;55.79
37892;BME280;45797;47.466;9.486;2023-06-04T04:58:48;95784.81;;;18.61;55.57
37892;BME280;45797;47.466;9.486;2023-06-04T05:03:49;95789.34;;;18.68;55.59
37892;BME280;45797;47.466;9.486;2023-06-04T05:08:52;95787.06;;;18.81;55.12
37892;BME280;45797;47.466;9.486;2023-06-04T05:13:54;95789.56;;;18.91;54.77
37892;BME280;45797;47.466;9.486;2023-06-04T05:19:02;95787.44;;;19.03;54.85
37892;BME280;45797;47.466;9.486;2023-06-04T05:24:16;95800.44;;;19.14;54.50
37892;BME280;45797;47.466;9.486;2023-06-04T05:29:18;95811.38;;;19.27;54.33
37892;BME280;45797;47.466;9.486;2023-06-04T05:34:29;95803.09;;;19.30;54.35
37892;BME280;45797;47.466;9.486;2023-06-04T05:39:32;95805.44;;;19.50;54.28
37892;BME280;45797;47.466;9.486;2023-06-04T05:44:40;95805.97;;;19.61;54.09
37892;BME280;45797;47.466;9.486;2023-06-04T05:49:43;95805.13;;;19.61;54.17
37892;BME280;45797;47.466;9.486;2023-06-04T05:54:45;95804.81;;;19.72;53.47
37892;BME280;45797;47.466;9.486;2023-06-04T05:59:46;95809.78;;;19.75;53.86
37892;BME280;45797;47.466;9.486;2023-06-04T06:04:49;95812.09;;;19.86;53.81
37892;BME280;45797;47.466;9.486;2023-06-04T06:09:52;95817.59;;;20.09;53.21
37892;BME280;45797;47.466;9.486;2023-06-04T06:14:58;95808.09;;;20.15;53.43
37892;BME280;45797;47.466;9.486;2023-06-04T06:19:58;95812.25;;;20.09;53.63
37892;BME280;45797;47.466;9.486;2023-06-04T06:24:59;95810.63;;;20.00;54.24
37892;BME280;45797;47.466;9.486;2023-06-04T06:30:02;95819.56;;;20.07;53.88
37892;BME280;45797;47.466;9.486;2023-06-04T06:35:03;95822.56;;;20.12;53.61
37892;BME280;45797;47.466;9.486;2023-06-04T06:40:07;95821.38;;;20.15;53.39
37892;BME280;45797;47.466;9.486;2023-06-04T06:45:20;95822.72;;;20.19;53.57
37892;BME280;45797;47.466;9.486;2023-06-04T06:50:22;95827.69;;;20.30;53.63
37892;BME280;45797;47.466;9.486;2023-06-04T06:55:24;95834.97;;;20.36;53.43
37892;BME280;45797;47.466;9.486;2023-06-04T07:00:26;95833.31;;;20.51;53.42
37892;BME280;45797;47.466;9.486;2023-06-04T07:05:30;95834.28;;;20.59;53.24
37892;BME280;45797;47.466;9.486;2023-06-04T07:10:37;95829.31;;;20.39;53.92
37892;BME280;45797;47.466;9.486;2023-06-04T07:15:38;95839.34;;;20.21;54.38
37892;BME280;45797;47.466;9.486;2023-06-04T07:20:38;95833.69;;;20.16;54.74
37892;BME280;45797;47.466;9.486;2023-06-04T07:25:41;95838.69;;;20.19;54.57
37892;BME280;45797;47.466;9.486;2023-06-04T07:30:41;95838.34;;;20.22;54.53
37892;BME280;45797;47.466;9.486;2023-06-04T07:35:48;95835.66;;;20.30;54.40
37892;BME280;45797;47.466;9.486;2023-06-04T07:40:57;95846.50;;;20.20;54.46
37892;BME280;45797;47.466;9.486;2023-06-04T07:46:05;95838.34;;;20.14;54.97
37892;BME280;45797;47.466;9.486;2023-06-04T07:51:07;95839.16;;;20.22;54.80
37892;BME280;45797;47.466;9.486;2023-06-04T07:56:13;95843.81;;;20.29;54.79
37892;BME280;45797;47.466;9.486;2023-06-04T08:01:15;95837.31;;;20.31;54.87
37892;BME280;45797;47.466;9.486;2023-06-04T08:06:16;95830.66;;;20.43;54.76
37892;BME280;45797;47.466;9.486;2023-06-04T08:11:16;95830.28;;;20.63;54.15
37892;BME280;45797;47.466;9.486;2023-06-04T08:16:17;95828.53;;;20.86;53.44
37892;BME280;45797;47.466;9.486;2023-06-04T08:21:28;95827.09;;;21.06;53.31
37892;BME280;45797;47.466;9.486;2023-06-04T08:26:28;95817.19;;;21.23;53.11
37892;BME280;45797;47.466;9.486;2023-06-04T08:31:58;95814.97;;;21.35;52.78
37892;BME280;45797;47.466;9.486;2023-06-04T08:37:00;95823.16;;;21.56;52.48
37892;BME280;45797;47.466;9.486;2023-06-04T08:42:06;95824.00;;;21.80;52.30
37892;BME280;45797;47.466;9.486;2023-06-04T08:47:12;95824.72;;;22.11;52.10
37892;BME280;45797;47.466;9.486;2023-06-04T08:52:13;95825.94;;;22.23;51.78
37892;BME280;45797;47.466;9.486;2023-06-04T08:57:22;95824.47;;;22.36;51.58
37892;BME280;45797;47.466;9.486;2023-06-04T09:02:28;95819.59;;;22.54;51.43
37892;BME280;45797;47.466;9.486;2023-06-04T09:07:29;95824.88;;;22.62;51.19
37892;BME280;45797;47.466;9.486;2023-06-04T09:12:42;95825.94;;;22.83;50.92
37892;BME280;45797;47.466;9.486;2023-06-04T09:17:48;95825.19;;;23.18;50.09
37892;BME280;45797;47.466;9.486;2023-06-04T09:22:52;95827.03;;;23.54;49.57
37892;BME280;45797;47.466;9.486;2023-06-04T09:27:57;95812.75;;;23.83;48.72
37892;BME280;45797;47.466;9.486;2023-06-04T09:33:12;95817.63;;;24.01;47.93
37892;BME280;45797;47.466;9.486;2023-06-04T09:38:12;95811.47;;;24.07;48.14
37892;BME280;45797;47.466;9.486;2023-06-04T09:43:21;95805.34;;;24.34;47.60
37892;BME280;45797;47.466;9.486;2023-06-04T09:48:23;95804.00;;;24.52;47.10
37892;BME280;45797;47.466;9.486;2023-06-04T09:53:27;95805.25;;;24.90;46.60
37892;BME280;45797;47.466;9.486;2023-06-04T09:58:29;95797.53;;;25.09;46.18
37892;BME280;45797;47.466;9.486;2023-06-04T10:03:31;95797.97;;;25.19;46.08
37892;BME280;45797;47.466;9.486;2023-06-04T10:08:37;95795.94;;;25.21;46.04
37892;BME280;45797;47.466;9.486;2023-06-04T10:14:03;95797.19;;;25.38;45.56
37892;BME280;45797;47.466;9.486;2023-06-04T10:19:07;95799.31;;;25.62;44.92
37892;BME280;45797;47.466;9.486;2023-06-04T10:24:07;95797.75;;;25.88;44.31
37892;BME280;45797;47.466;9.486;2023-06-04T10:29:27;95788.22;;;26.05;44.06
37892;BME280;45797;47.466;9.486;2023-06-04T10:34:31;95790.28;;;26.30;43.45
37892;BME280;45797;47.466;9.486;2023-06-04T10:39:32;95793.63;;;26.45;42.79
37892;BME280;45797;47.466;9.486;2023-06-04T10:44:45;95788.78;;;26.67;42.05
37892;BME280;45797;47.466;9.486;2023-06-04T10:49:46;95781.56;;;26.67;42.03
37892;BME280;45797;47.466;9.486;2023-06-04T10:54:48;95786.09;;;26.73;41.80
37892;BME280;45797;47.466;9.486;2023-06-04T10:59:59;95777.75;;;26.95;41.18
37892;BME280;45797;47.466;9.486;2023-06-04T11:05:05;95778.28;;;27.23;41.00
37892;BME280;45797;47.466;9.486;2023-06-04T11:10:10;95782.63;;;27.56;39.80
37892;BME280;45797;47.466;9.486;2023-06-04T11:15:12;95782.81;;;27.61;39.43
37892;BME280;45797;47.466;9.486;2023-06-04T11:20:24;95781.28;;;27.78;38.98
37892;BME280;45797;47.466;9.486;2023-06-04T11:25:25;95780.19;;;28.11;38.37
37892;BME280;45797;47.466;9.486;2023-06-04T11:30:27;95776.84;;;28.40;37.91
37892;BME280;45797;47.466;9.486;2023-06-04T11:35:56;95780.34;;;28.41;37.99
37892;BME280;45797;47.466;9.486;2023-06-04T11:40:58;95783.38;;;28.26;37.37
37892;BME280;45797;47.466;9.486;2023-06-04T11:46:05;95794.66;;;28.41;37.07
37892;BME280;45797;47.466;9.486;2023-06-04T11:51:12;95790.91;;;28.42;37.00
37892;BME280;45797;47.466;9.486;2023-06-04T11:56:19;95786.69;;;28.53;36.55
37892;BME280;45797;47.466;9.486;2023-06-04T12:01:22;95778.50;;;28.60;36.16
37892;BME280;45797;47.466;9.486;2023-06-04T12:06:23;95772.72;;;28.38;36.45
37892;BME280;45797;47.466;9.486;2023-06-04T12:16:37;95772.16;;;28.54;36.29
37892;BME280;45797;47.466;9.486;2023-06-04T12:21:41;95764.41;;;28.39;36.04
37892;BME280;45797;47.466;9.486;2023-06-04T12:26:43;95767.63;;;28.23;36.11
37892;BME280;45797;47.466;9.486;2023-06-04T12:32:04;95765.25;;;28.58;35.95
37892;BME280;45797;47.466;9.486;2023-06-04T12:37:17;95757.44;;;29.23;35.00
37892;BME280;45797;47.466;9.486;2023-06-04T12:42:19;95770.72;;;29.25;34.71
37892;BME280;45797;47.466;9.486;2023-06-04T12:47:39;95765.63;;;29.47;34.02
37892;BME280;45797;47.466;9.486;2023-06-04T12:52:45;95758.78;;;29.33;34.26
37892;BME280;45797;47.466;9.486;2023-06-04T12:57:56;95756.06;;;29.33;34.10
37892;BME280;45797;47.466;9.486;2023-06-04T13:03:12;95749.88;;;29.74;33.45
37892;BME280;45797;47.466;9.486;2023-06-04T13:08:14;95753.94;;;30.06;32.77
37892;BME280;45797;47.466;9.486;2023-06-04T13:13:17;95752.56;;;30.39;32.86
37892;BME280;45797;47.466;9.486;2023-06-04T13:18:24;95756.81;;;30.23;32.99
37892;BME280;45797;47.466;9.486;2023-06-04T13:23:25;95768.94;;;29.79;32.74
37892;BME280;45797;47.466;9.486;2023-06-04T13:28:27;95764.59;;;29.90;32.63
37892;BME280;45797;47.466;9.486;2023-06-04T13:33:28;95760.56;;;30.34;32.19
37892;BME280;45797;47.466;9.486;2023-06-04T13:38:38;95766.19;;;30.21;31.97
37892;BME280;45797;47.466;9.486;2023-06-04T13:43:41;95767.91;;;29.92;32.35
37892;BME280;45797;47.466;9.486;2023-06-04T13:48:41;95767.03;;;29.68;32.76
37892;BME280;45797;47.466;9.486;2023-06-04T13:53:47;95765.84;;;29.64;32.46
37892;BME280;45797;47.466;9.486;2023-06-04T13:58:49;95763.28;;;29.69;32.21
37892;BME280;45797;47.466;9.486;2023-06-04T14:03:49;95759.03;;;29.73;32.74
37892;BME280;45797;47.466;9.486;2023-06-04T14:08:57;95753.13;;;29.52;32.53
37892;BME280;45797;47.466;9.486;2023-06-04T14:13:58;95750.41;;;29.22;32.75
37892;BME280;45797;47.466;9.486;2023-06-04T14:18:58;95744.44;;;29.02;32.61
37892;BME280;45797;47.466;9.486;2023-06-04T14:24:00;95738.53;;;29.23;32.71
37892;BME280;45797;47.466;9.486;2023-06-04T14:29:25;95730.91;;;30.51;31.26
37892;BME280;45797;47.466;9.486;2023-06-04T14:34:42;95734.44;;;31.26;30.61
37892;BME280;45797;47.466;9.486;2023-06-04T14:39:55;95743.03;;;32.14;29.72
37892;BME280;45797;47.466;9.486;2023-06-04T14:44:56;95738.25;;;32.55;29.40
37892;BME280;45797;47.466;9.486;2023-06-04T14:49:57;95737.53;;;33.25;29.17
37892;BME280;45797;47.466;9.486;2023-06-04T14:54:58;95739.47;;;34.05;28.29
37892;BME280;45797;47.466;9.486;2023-06-04T15:00:06;95742.13;;;34.75;27.52
37892;BME280;45797;47.466;9.486;2023-06-04T15:05:08;95747.00;;;35.20;27.13
37892;BME280;45797;47.466;9.486;2023-06-04T15:10:09;95736.56;;;36.36;26.10
37892;BME280;45797;47.466;9.486;2023-06-04T15:15:12;95738.41;;;36.76;25.55
37892;BME280;45797;47.466;9.486;2023-06-04T15:20:27;95740.63;;;38.32;24.48
37892;BME280;45797;47.466;9.486;2023-06-04T15:25:29;95751.09;;;39.74;22.97
37892;BME280;45797;47.466;9.486;2023-06-04T15:30:31;95747.38;;;41.14;21.70
37892;BME280;45797;47.466;9.486;2023-06-04T15:35:32;95747.44;;;42.00;21.35
37892;BME280;45797;47.466;9.486;2023-06-04T15:40:34;95748.44;;;43.59;20.29
37892;BME280;45797;47.466;9.486;2023-06-04T15:45:35;95743.97;;;45.05;19.02
37892;BME280;45797;47.466;9.486;2023-06-04T15:50:38;95749.97;;;46.17;18.01
37892;BME280;45797;47.466;9.486;2023-06-04T15:55:39;95749.81;;;47.49;17.62
37892;BME280;45797;47.466;9.486;2023-06-04T16:00:40;95740.88;;;47.80;17.38
37892;BME280;45797;47.466;9.486;2023-06-04T16:05:40;95749.91;;;47.77;17.07
37892;BME280;45797;47.466;9.486;2023-06-04T16:10:41;95745.72;;;47.10;17.81
37892;BME280;45797;47.466;9.486;2023-06-04T16:15:43;95742.06;;;47.30;18.02
37892;BME280;45797;47.466;9.486;2023-06-04T16:20:44;95745.97;;;46.26;18.47
37892;BME280;45797;47.466;9.486;2023-06-04T16:25:45;95740.81;;;45.15;19.22
37892;BME280;45797;47.466;9.486;2023-06-04T16:30:46;95731.59;;;43.95;20.34
37892;BME280;45797;47.466;9.486;2023-06-04T16:35:46;95726.06;;;42.19;21.37
37892;BME280;45797;47.466;9.486;2023-06-04T16:40:47;95733.03;;;42.03;20.79
37892;BME280;45797;47.466;9.486;2023-06-04T16:45:49;95729.94;;;43.51;19.51
37892;BME280;45797;47.466;9.486;2023-06-04T16:50:49;95732.72;;;43.77;19.22
37892;BME280;45797;47.466;9.486;2023-06-04T16:55:50;95738.13;;;44.16;18.51
37892;BME280;45797;47.466;9.486;2023-06-04T17:00:52;95735.81;;;44.53;18.40
37892;BME280;45797;47.466;9.486;2023-06-04T17:05:52;95733.22;;;43.96;18.34
37892;BME280;45797;47.466;9.486;2023-06-04T17:10:57;95743.06;;;45.31;18.32
37892;BME280;45797;47.466;9.486;2023-06-04T17:15:58;95742.13;;;46.19;17.17
37892;BME280;45797;47.466;9.486;2023-06-04T17:21:06;95739.09;;;44.29;18.90
37892;BME280;45797;47.466;9.486;2023-06-04T17:26:06;95726.25;;;42.76;20.16
37892;BME280;45797;47.466;9.486;2023-06-04T17:31:08;95724.31;;;41.23;20.38
37892;BME280;45797;47.466;9.486;2023-06-04T17:36:18;95721.38;;;41.33;20.09
37892;BME280;45797;47.466;9.486;2023-06-04T17:41:45;95723.88;;;43.40;18.80
37892;BME280;45797;47.466;9.486;2023-06-04T17:46:46;95735.13;;;44.65;17.79
37892;BME280;45797;47.466;9.486;2023-06-04T17:51:50;95732.34;;;45.50;17.41
37892;BME280;45797;47.466;9.486;2023-06-04T17:56:51;95739.53;;;45.72;17.16
37892;BME280;45797;47.466;9.486;2023-06-04T18:01:53;95743.16;;;45.64;17.47
37892;BME280;45797;47.466;9.486;2023-06-04T18:06:54;95748.59;;;45.22;17.65
37892;BME280;45797;47.466;9.486;2023-06-04T18:11:56;95737.94;;;44.39;18.01
37892;BME280;45797;47.466;9.486;2023-06-04T18:16:57;95739.16;;;43.46;18.57
37892;BME280;45797;47.466;9.486;2023-06-04T18:22:00;95729.84;;;42.32;19.59
37892;BME280;45797;47.466;9.486;2023-06-04T18:27:00;95731.47;;;40.97;20.95
37892;BME280;45797;47.466;9.486;2023-06-04T18:32:01;95732.91;;;38.34;22.93
37892;BME280;45797;47.466;9.486;2023-06-04T18:37:01;95734.94;;;36.14;24.29
37892;BME280;45797;47.466;9.486;2023-06-04T18:42:02;95725.78;;;34.32;25.80
37892;BME280;45797;47.466;9.486;2023-06-04T18:47:04;95734.72;;;32.76;27.05
37892;BME280;45797;47.466;9.486;2023-06-04T18:52:06;95732.25;;;31.40;28.15
37892;BME280;45797;47.466;9.486;2023-06-04T18:57:11;95718.94;;;30.35;29.56
37892;BME280;45797;47.466;9.486;2023-06-04T19:02:13;95722.59;;;29.22;30.59
37892;BME280;45797;47.466;9.486;2023-06-04T19:07:15;95725.84;;;28.39;31.51
37892;BME280;45797;47.466;9.486;2023-06-04T19:12:15;95730.16;;;27.65;31.93
37892;BME280;45797;47.466;9.486;2023-06-04T19:17:26;95727.91;;;26.92;32.53
37892;BME280;45797;47.466;9.486;2023-06-04T19:22:36;95734.91;;;26.29;33.31
37892;BME280;45797;47.466;9.486;2023-06-04T19:27:39;95742.38;;;25.80;33.71
37892;BME280;45797;47.466;9.486;2023-06-04T19:32:45;95741.50;;;25.40;34.27
37892;BME280;45797;47.466;9.486;2023-06-04T19:37:45;95745.34;;;25.04;34.62
37892;BME280;45797;47.466;9.486;2023-06-04T19:42:58;95752.78;;;24.68;35.13
37892;BME280;45797;47.466;9.486;2023-06-04T19:48:05;95760.84;;;24.33;35.40
37892;BME280;45797;47.466;9.486;2023-06-04T19:53:06;95765.13;;;24.00;36.00
37892;BME280;45797;47.466;9.486;2023-06-04T19:58:24;95777.03;;;23.69;36.50
37892;BME280;45797;47.466;9.486;2023-06-04T20:03:26;95784.88;;;23.56;36.98
37892;BME280;45797;47.466;9.486;2023-06-04T20:08:30;95772.53;;;23.33;37.37
37892;BME280;45797;47.466;9.486;2023-06-04T20:13:32;95778.09;;;23.17;37.38
37892;BME280;45797;47.466;9.486;2023-06-04T20:18:41;95779.72;;;22.97;38.00
37892;BME280;45797;47.466;9.486;2023-06-04T20:23:41;95786.72;;;22.83;38.22
37892;BME280;45797;47.466;9.486;2023-06-04T20:28:46;95778.97;;;22.73;38.27
37892;BME280;45797;47.466;9.486;2023-06-04T20:33:48;95779.47;;;22.62;38.78
37892;BME280;45797;47.466;9.486;2023-06-04T20:39:15;95783.06;;;22.40;39.06
37892;BME280;45797;47.466;9.486;2023-06-04T20:44:20;95797.69;;;22.29;39.09
37892;BME280;45797;47.466;9.486;2023-06-04T20:49:21;95792.38;;;22.06;39.96
37892;BME280;45797;47.466;9.486;2023-06-04T20:54:22;95790.53;;;21.92;40.24
37892;BME280;45797;47.466;9.486;2023-06-04T20:59:22;95784.31;;;21.77;40.65
37892;BME280;45797;47.466;9.486;2023-06-04T21:04:31;95784.09;;;21.63;40.81
37892;BME280;45797;47.466;9.486;2023-06-04T21:09:44;95793.88;;;21.48;40.77
37892;BME280;45797;47.466;9.486;2023-06-04T21:14:45;95797.78;;;21.37;41.15
37892;BME280;45797;47.466;9.486;2023-06-04T21:19:56;95790.66;;;21.30;41.39
37892;BME280;45797;47.466;9.486;2023-06-04T21:24:58;95788.69;;;21.24;41.71
37892;BME280;45797;47.466;9.486;2023-06-04T21:30:03;95791.09;;;21.10;41.91
37892;BME280;45797;47.466;9.486;2023-06-04T21:35:05;95792.88;;;20.95;42.46
37892;BME280;45797;47.466;9.486;2023-06-04T21:40:06;95795.41;;;20.80;42.73
37892;BME280;45797;47.466;9.486;2023-06-04T21:45:11;95802.97;;;20.69;42.78
37892;BME280;45797;47.466;9.486;2023-06-04T21:50:13;95807.16;;;20.55;43.25
37892;BME280;45797;47.466;9.486;2023-06-04T21:55:18;95808.69;;;20.41;43.36
37892;BME280;45797;47.466;9.486;2023-06-04T22:00:19;95803.09;;;20.28;43.66
37892;BME280;45797;47.466;9.486;2023-06-04T22:05:20;95800.63;;;20.18;43.73
37892;BME280;45797;47.466;9.486;2023-06-04T22:10:25;95803.28;;;20.10;43.68
37892;BME280;45797;47.466;9.486;2023-06-04T22:15:33;95803.94;;;19.96;43.98
37892;BME280;45797;47.466;9.486;2023-06-04T22:20:54;95794.50;;;19.77;44.07
37892;BME280;45797;47.466;9.486;2023-06-04T22:25:57;95799.16;;;19.67;44.81
37892;BME280;45797;47.466;9.486;2023-06-04T22:31:02;95797.50;;;19.58;45.27
37892;BME280;45797;47.466;9.486;2023-06-04T22:36:08;95799.28;;;19.49;45.39
37892;BME280;45797;47.466;9.486;2023-06-04T22:41:10;95791.47;;;19.39;45.16
37892;BME280;45797;47.466;9.486;2023-06-04T22:46:11;95798.13;;;19.27;45.74
37892;BME280;45797;47.466;9.486;2023-06-04T22:51:13;95793.78;;;19.18;46.36
37892;BME280;45797;47.466;9.486;2023-06-04T22:56:16;95790.94;;;19.11;46.46
37892;BME280;45797;47.466;9.486;2023-06-04T23:01:25;95798.38;;;19.00;46.55
37892;BME280;45797;47.466;9.486;2023-06-04T23:06:34;95798.38;;;18.92;46.64
37892;BME280;45797;47.466;9.486;2023-06-04T23:11:40;95800.34;;;18.90;46.46
37892;BME280;45797;47.466;9.486;2023-06-04T23:16:41;95789.53;;;18.83;47.10
37892;BME280;45797;47.466;9.486;2023-06-04T23:21:41;95788.50;;;18.76;47.59
37892;BME280;45797;47.466;9.486;2023-06-04T23:26:43;95780.06;;;18.72;47.62
37892;BME280;45797;47.466;9.486;2023-06-04T23:31:45;95773.72;;;18.65;47.68
37892;BME280;45797;47.466;9.486;2023-06-04T23:36:46;95779.31;;;18.62;47.52
37892;BME280;45797;47.466;9.486;2023-06-04T23:41:46;95779.13;;;18.55;47.93
37892;BME280;45797;47.466;9.486;2023-06-04T23:46:47;95772.31;;;18.53;48.24
37892;BME280;45797;47.466;9.486;2023-06-04T23:51:50;95778.13;;;18.48;47.93
37892;BME280;45797;47.466;9.486;2023-06-04T23:56:52;95779.59;;;18.43;48.11
